.
WxDataArchive / Data Records for 2010-12-23
2010-12-22 December 2010 2010-12-24

Data Records for Thursday, 23 December 2010

Time	Temp	Chill	HIndex	Humid	Dewpt	 Wind 	HiWind	WindDir	Rain 	Barom 
-----	----	-----	------	-----	-----	------	------	-------	-----	----- 
00:00	26.6	26.6	26.6	77	20.4	0	2	315	0.00	30.394 
00:05	26.7	26.7	26.7	77	20.5	0	2	270	0.00	30.394 
00:10	26.9	26.9	26.9	77	20.7	0	2	270	0.00	30.394 
00:15	27.0	27.0	27.0	77	20.8	0	1	270	0.00	30.391 
00:20	27.2	27.2	27.2	77	21.0	0	2	270	0.00	30.391 
00:25	27.3	27.3	27.3	76	20.8	0	1	270	0.00	30.391 
00:30	27.6	27.6	27.6	76	21.0	0	1	270	0.00	30.392 
00:35	27.8	27.8	27.8	76	21.2	0	1	270	0.00	30.392 
00:40	27.8	27.8	27.8	76	21.2	0	1	270	0.00	30.392 
00:45	27.9	27.9	27.9	76	21.3	0	3	270	0.00	30.388 
00:50	28.1	28.1	28.1	76	21.5	0	1	270	0.00	30.388 
00:55	28.1	28.1	28.1	76	21.5	0	2	270	0.00	30.388 
01:00	28.2	28.2	28.2	76	21.6	0	1	270	0.00	30.386 
01:05	28.4	28.4	28.4	77	22.1	0	1	270	0.00	30.386 
01:10	28.4	28.4	28.4	77	22.1	0	2	270	0.00	30.386 
01:15	28.4	28.4	28.4	77	22.1	0	1	338	0.00	30.379 
01:20	28.5	28.5	28.5	77	22.2	0	0	---	0.00	30.379 
01:25	28.5	28.5	28.5	77	22.2	0	1	338	0.00	30.379 
01:30	28.5	28.5	28.5	77	22.2	0	3	338	0.00	30.373 
01:35	29.0	29.0	29.0	77	22.7	0	2	338	0.00	30.373 
01:40	29.3	29.3	29.3	77	23.0	0	2	338	0.00	30.373 
01:45	29.3	29.3	29.3	76	22.7	0	1	338	0.00	30.373 
01:50	29.3	29.3	29.3	77	23.0	0	1	338	0.00	30.373 
01:55	29.4	29.4	29.4	77	23.1	0	2	338	0.00	30.373 
02:00	29.4	29.4	29.4	77	23.1	0	1	338	0.00	30.371 
02:05	29.4	29.4	29.4	77	23.1	0	2	338	0.00	30.371 
02:10	29.5	29.5	29.5	77	23.2	0	1	338	0.00	30.371 
02:15	29.5	29.5	29.5	77	23.2	0	1	338	0.00	30.374 
02:20	29.5	29.5	29.5	77	23.2	0	1	338	0.00	30.374 
02:25	29.5	29.5	29.5	77	23.2	0	1	338	0.00	30.374 
02:30	29.7	29.7	29.7	77	23.4	0	1	338	0.00	30.375 
02:35	29.7	29.7	29.7	77	23.4	0	0	---	0.00	30.375 
02:40	29.7	29.7	29.7	77	23.4	0	1	338	0.00	30.375 
02:45	29.7	29.7	29.7	77	23.4	0	2	338	0.00	30.383 
02:50	29.7	29.7	29.7	77	23.4	0	1	338	0.00	30.383 
02:55	29.7	29.7	29.7	77	23.4	0	2	338	0.00	30.383 
03:00	29.7	29.7	29.7	77	23.4	0	1	338	0.00	30.387 
03:05	29.7	29.7	29.7	77	23.4	0	2	338	0.00	30.387 
03:10	29.7	29.7	29.7	77	23.4	0	2	338	0.00	30.387 
03:15	29.8	29.8	29.8	77	23.5	0	2	338	0.00	30.386 
03:20	29.8	29.8	29.8	77	23.5	0	1	338	0.00	30.386 
03:25	29.8	29.8	29.8	77	23.5	0	1	338	0.00	30.386 
03:30	29.8	29.8	29.8	78	23.8	0	2	338	0.00	30.382 
03:35	29.8	29.8	29.8	78	23.8	0	2	338	0.00	30.382 
03:40	29.8	29.8	29.8	78	23.8	0	2	270	0.00	30.382 
03:45	29.8	29.8	29.8	78	23.8	0	3	248	0.00	30.385 
03:50	29.8	29.8	29.8	78	23.8	0	2	248	0.00	30.385 
03:55	29.8	29.8	29.8	78	23.8	0	2	248	0.00	30.385 
04:00	29.8	29.8	29.8	78	23.8	0	2	338	0.00	30.380 
04:05	29.8	29.8	29.8	78	23.8	0	2	338	0.00	30.380 
04:10	29.8	29.8	29.8	78	23.8	0	3	270	0.00	30.380 
04:15	29.8	29.8	29.8	79	24.1	0	3	270	0.00	30.387 
04:20	29.8	29.8	29.8	79	24.1	0	3	270	0.00	30.387 
04:25	30.0	30.0	30.0	79	24.3	0	2	270	0.00	30.387 
04:30	30.0	30.0	30.0	79	24.3	0	1	270	0.00	30.392 
04:35	30.0	30.0	30.0	79	24.3	0	1	270	0.00	30.392 
04:40	30.0	30.0	30.0	79	24.3	0	2	270	0.00	30.392 
04:45	30.0	30.0	30.0	79	24.3	0	2	315	0.00	30.390 
04:50	30.0	30.0	30.0	79	24.3	0	3	315	0.00	30.390 
04:55	30.0	30.0	30.0	79	24.3	0	3	270	0.00	30.390 
05:00	30.0	30.0	30.0	79	24.3	0	2	270	0.00	30.394 
05:05	30.0	30.0	30.0	79	24.3	0	2	270	0.00	30.394 
05:10	30.1	30.1	30.1	79	24.4	0	3	270	0.00	30.394 
05:15	30.1	30.1	30.1	79	24.4	0	1	270	0.00	30.398 
05:20	30.1	30.1	30.1	80	24.7	0	1	270	0.00	30.398 
05:25	30.1	30.1	30.1	79	24.4	0	1	270	0.00	30.398 
05:30	30.1	30.1	30.1	80	24.7	0	1	270	0.00	30.399 
05:35	30.1	30.1	30.1	80	24.7	0	2	270	0.00	30.399 
05:40	30.1	30.1	30.1	80	24.7	0	2	270	0.00	30.399 
05:45	30.1	30.1	30.1	80	24.7	0	2	270	0.00	30.397 
05:50	30.1	30.1	30.1	80	24.7	0	1	270	0.00	30.397 
05:55	30.0	30.0	30.0	80	24.6	0	1	270	0.00	30.397 
06:00	30.0	30.0	30.0	80	24.6	0	1	270	0.00	30.403 
06:05	30.0	30.0	30.0	80	24.6	0	2	270	0.00	30.403 
06:10	30.0	30.0	30.0	80	24.6	0	1	270	0.00	30.403 
06:15	30.0	30.0	30.0	81	24.9	0	0	---	0.00	30.409 
06:20	30.0	30.0	30.0	81	24.9	0	1	270	0.00	30.409 
06:25	30.0	30.0	30.0	81	24.9	0	1	270	0.00	30.409 
06:30	30.0	30.0	30.0	81	24.9	0	1	292	0.00	30.411 
06:35	30.0	30.0	30.0	81	24.9	0	1	292	0.00	30.411 
06:40	30.0	30.0	30.0	81	24.9	0	1	292	0.00	30.411 
06:45	30.0	30.0	30.0	81	24.9	0	1	292	0.00	30.419 
06:50	30.0	30.0	30.0	81	24.9	0	1	292	0.00	30.419 
06:55	30.1	30.1	30.1	81	25.0	0	1	292	0.00	30.419 
07:00	30.1	30.1	30.1	81	25.0	0	2	292	0.00	30.419 
07:05	30.1	30.1	30.1	80	24.7	0	2	292	0.00	30.419 
07:10	30.1	30.1	30.1	80	24.7	0	2	338	0.00	30.419 
07:15	30.3	30.3	30.3	79	24.6	0	3	338	0.00	30.422 
07:20	30.3	30.3	30.3	79	24.6	0	2	338	0.00	30.422 
07:25	30.3	30.3	30.3	79	24.6	0	1	338	0.00	30.422 
07:30	30.3	30.3	30.3	79	24.6	0	1	338	0.00	30.421 
07:35	30.3	30.3	30.3	79	24.6	0	3	338	0.00	30.421 
07:40	30.3	30.3	30.3	79	24.6	0	1	270	0.00	30.421 
07:45	30.3	30.3	30.3	79	24.6	0	2	270	0.00	30.424 
07:50	30.3	30.3	30.3	78	24.3	0	1	270	0.00	30.424 
07:55	30.3	30.3	30.3	78	24.3	0	3	270	0.00	30.424 
08:00	30.3	30.3	30.3	78	24.3	0	4	270	0.00	30.426 
08:05	30.3	30.3	30.3	78	24.3	0	2	22	0.00	30.426 
08:10	30.3	30.3	30.3	77	24.0	0	0	---	0.00	30.426 
08:15	30.3	30.3	30.3	77	24.0	0	2	22	0.00	30.428 
08:20	30.3	30.3	30.3	77	24.0	0	3	22	0.00	30.428 
08:25	30.4	30.4	30.4	76	23.8	0	4	270	0.00	30.428 
08:30	30.4	30.4	30.4	76	23.8	0	5	270	0.00	30.432 
08:35	30.4	30.4	30.4	75	23.4	1	3	270	0.00	30.432 
08:40	30.6	30.6	30.6	74	23.3	0	2	338	0.00	30.432 
08:45	30.6	30.6	30.6	74	23.3	0	2	225	0.00	30.436 
08:50	30.6	30.6	30.6	74	23.3	0	1	225	0.00	30.436 
08:55	30.6	30.6	30.6	74	23.3	0	3	248	0.00	30.436 
09:00	30.7	30.7	30.7	73	23.1	0	2	248	0.00	30.435 
09:05	30.7	30.7	30.7	73	23.1	0	3	248	0.00	30.435 
09:10	30.9	30.9	30.9	73	23.3	0	1	248	0.00	30.435 
09:15	31.0	31.0	31.0	73	23.4	0	2	248	0.00	30.439 
09:20	31.0	31.0	31.0	73	23.4	0	2	315	0.00	30.439 
09:25	31.0	31.0	31.0	72	23.1	0	2	315	0.00	30.439 
09:30	31.2	31.2	31.2	72	23.2	0	3	315	0.00	30.443 
09:35	31.2	31.2	31.2	72	23.2	0	2	315	0.00	30.443 
09:40	31.3	31.3	31.3	72	23.3	0	2	315	0.00	30.443 
09:45	31.5	31.5	31.5	72	23.5	0	1	315	0.00	30.445 
09:50	31.6	31.6	31.6	72	23.6	1	2	315	0.00	30.445 
09:55	31.8	31.8	31.8	72	23.8	0	2	315	0.00	30.445 
10:00	31.9	31.9	31.9	72	23.9	0	3	315	0.00	30.449 
10:05	32.1	32.1	32.1	72	24.1	1	4	338	0.00	30.449 
10:10	32.1	32.1	32.1	72	24.1	1	4	338	0.00	30.449 
10:15	32.1	32.1	32.1	72	24.1	1	3	315	0.00	30.452 
10:20	32.2	32.2	32.2	72	24.2	0	3	338	0.00	30.452 
10:25	32.2	32.2	32.2	71	23.9	1	4	270	0.00	30.452 
10:30	32.2	32.2	32.2	70	23.5	2	5	292	0.00	30.457 
10:35	32.2	32.2	32.2	70	23.5	1	4	315	0.00	30.457 
10:40	32.2	32.2	32.2	70	23.5	1	3	338	0.00	30.457 
10:45	32.4	32.4	32.4	69	23.4	0	2	338	0.00	30.460 
10:50	32.4	32.4	32.4	69	23.4	1	3	315	0.00	30.460 
10:55	32.4	32.4	32.4	68	23.0	2	7	292	0.00	30.460 
11:00	32.2	32.2	32.2	68	22.8	1	4	338	0.00	30.456 
11:05	32.2	32.2	32.2	68	22.8	1	4	338	0.00	30.456 
11:10	32.4	32.4	32.4	68	23.0	1	3	315	0.00	30.456 
11:15	32.4	32.4	32.4	68	23.0	1	4	338	0.00	30.452 
11:20	32.4	32.4	32.4	67	22.7	1	4	270	0.00	30.452 
11:25	32.2	32.2	32.2	67	22.5	1	4	270	0.00	30.452 
11:30	32.2	32.2	32.2	67	22.5	1	3	315	0.00	30.450 
11:35	32.2	32.2	32.2	67	22.5	1	4	338	0.00	30.450 
11:40	32.2	32.2	32.2	67	22.5	1	4	338	0.00	30.450 
11:45	32.4	32.4	32.4	67	22.7	1	4	315	0.00	30.446 
11:50	32.5	32.5	32.5	67	22.8	1	3	338	0.00	30.446 
11:55	32.5	32.5	32.5	66	22.4	1	4	248	0.01	30.446 
12:00	32.7	32.7	32.7	66	22.6	1	4	248	0.00	30.440 
12:05	32.7	32.7	32.7	65	22.3	1	4	270	0.00	30.440 
12:10	32.5	32.5	32.5	65	22.1	2	4	315	0.00	30.440 
12:15	32.5	32.5	32.5	65	22.1	2	4	225	0.00	30.438 
12:20	32.5	32.5	32.5	65	22.1	2	4	315	0.00	30.438 
12:25	32.5	32.5	32.5	65	22.1	2	4	292	0.00	30.438 
12:30	32.5	32.5	32.5	66	22.4	1	3	292	0.00	30.437 
12:35	32.5	32.5	32.5	66	22.4	1	4	315	0.00	30.437 
12:40	32.4	32.4	32.4	65	22.0	2	9	270	0.00	30.437 
12:45	32.2	32.2	32.2	65	21.8	2	4	292	0.00	30.430 
12:50	32.1	32.1	32.1	65	21.7	2	5	338	0.00	30.430 
12:55	32.1	32.1	32.1	65	21.7	1	4	315	0.01	30.430 
13:00	32.1	32.1	32.1	65	21.7	1	4	0	0.00	30.422 
13:05	32.2	32.2	32.2	65	21.8	1	3	292	0.00	30.422 
13:10	32.4	32.4	32.4	65	22.0	1	4	22	0.00	30.422 
13:15	32.5	32.5	32.5	65	22.1	1	3	338	0.00	30.414 
13:20	32.8	32.8	32.8	65	22.3	1	4	315	0.00	30.414 
13:25	32.8	32.8	32.8	65	22.3	1	5	315	0.00	30.414 
13:30	32.7	32.7	32.7	64	21.9	2	4	292	0.00	30.404 
13:35	32.1	32.1	32.1	65	21.7	2	5	270	0.01	30.404 
13:40	32.4	32.4	32.4	65	22.0	2	6	292	0.00	30.404 
13:45	32.7	32.7	32.7	65	22.3	1	4	270	0.00	30.402 
13:50	32.8	32.8	32.8	65	22.3	1	5	0	0.00	30.402 
13:55	32.5	32.5	32.5	64	21.7	2	9	22	0.00	30.402 
14:00	31.9	31.9	31.9	65	21.5	1	3	0	0.00	30.404 
14:05	31.6	31.6	31.6	66	21.6	1	6	338	0.00	30.404 
14:10	31.5	31.5	31.5	66	21.5	1	3	338	0.00	30.404 
14:15	31.8	31.8	31.8	67	22.1	1	3	22	0.00	30.399 
14:20	32.2	32.2	32.2	65	21.8	1	3	338	0.00	30.399 
14:25	32.4	32.4	32.4	65	22.0	1	4	338	0.00	30.399 
14:30	32.4	32.4	32.4	64	21.6	1	5	0	0.00	30.399 
14:35	32.1	32.1	32.1	65	21.7	1	3	292	0.00	30.399 
14:40	31.9	31.9	31.9	64	21.1	1	3	315	0.00	30.399 
14:45	31.9	31.9	31.9	65	21.5	0	2	338	0.00	30.403 
14:50	31.9	31.9	31.9	65	21.5	1	3	0	0.00	30.403 
14:55	31.8	31.8	31.8	65	21.4	1	3	338	0.00	30.403 
15:00	31.9	31.9	31.9	65	21.5	1	5	338	0.00	30.407 
15:05	31.9	31.9	31.9	65	21.5	2	4	292	0.00	30.407 
15:10	31.9	31.9	31.9	65	21.5	1	5	292	0.00	30.407 
15:15	31.9	31.9	31.9	66	21.9	1	4	270	0.00	30.408 
15:20	31.9	31.9	31.9	66	21.9	2	4	248	0.01	30.408 
15:25	31.9	31.9	31.9	65	21.5	1	4	338	0.00	30.408 
15:30	31.9	31.9	31.9	66	21.9	1	3	315	0.00	30.411 
15:35	31.9	31.9	31.9	66	21.9	1	4	315	0.00	30.411 
15:40	31.9	31.9	31.9	66	21.9	1	2	292	0.00	30.411 
15:45	31.9	31.9	31.9	66	21.9	1	4	315	0.00	30.414 
15:50	31.8	31.8	31.8	66	21.8	1	5	338	0.00	30.414 
15:55	31.8	31.8	31.8	66	21.8	1	5	315	0.00	30.414 
16:00	31.8	31.8	31.8	67	22.1	0	2	315	0.00	30.417 
16:05	31.9	31.9	31.9	67	22.2	1	3	315	0.00	30.417 
16:10	31.8	31.8	31.8	67	22.1	1	3	0	0.00	30.417 
16:15	31.8	31.8	31.8	66	21.8	0	2	338	0.00	30.418 
16:20	31.8	31.8	31.8	67	22.1	0	1	338	0.00	30.418 
16:25	31.8	31.8	31.8	67	22.1	0	3	338	0.00	30.418 
16:30	31.6	31.6	31.6	66	21.6	0	3	338	0.00	30.419 
16:35	31.6	31.6	31.6	67	21.9	0	1	292	0.00	30.419 
16:40	31.6	31.6	31.6	67	21.9	0	2	292	0.00	30.419 
16:45	31.6	31.6	31.6	68	22.3	0	2	315	0.00	30.418 
16:50	31.5	31.5	31.5	68	22.2	0	2	315	0.00	30.418 
16:55	31.5	31.5	31.5	68	22.2	0	1	315	0.00	30.418 
17:00	31.5	31.5	31.5	68	22.2	0	1	315	0.00	30.420 
17:05	31.3	31.3	31.3	68	22.0	0	1	315	0.00	30.420 
17:10	31.3	31.3	31.3	68	22.0	0	3	270	0.00	30.420 
17:15	31.3	31.3	31.3	68	22.0	0	2	270	0.00	30.422 
17:20	31.2	31.2	31.2	69	22.2	0	1	270	0.00	30.422 
17:25	31.2	31.2	31.2	69	22.2	0	2	270	0.00	30.422 
17:30	31.2	31.2	31.2	69	22.2	0	1	270	0.00	30.423 
17:35	31.2	31.2	31.2	69	22.2	0	2	270	0.00	30.423 
17:40	31.2	31.2	31.2	69	22.2	0	2	270	0.00	30.423 
17:45	31.0	31.0	31.0	70	22.4	0	2	270	0.00	30.423 
17:50	31.0	31.0	31.0	70	22.4	0	4	270	0.00	30.423 
17:55	31.0	31.0	31.0	70	22.4	0	3	270	0.00	30.423 
18:00	31.0	31.0	31.0	70	22.4	0	1	270	0.00	30.423 
18:05	31.0	31.0	31.0	70	22.4	0	2	270	0.00	30.423 
18:10	30.9	30.9	30.9	70	22.3	0	0	---	0.00	30.423 
18:15	30.9	30.9	30.9	71	22.6	0	1	270	0.00	30.424 
18:20	30.9	30.9	30.9	71	22.6	0	1	270	0.00	30.424 
18:25	30.7	30.7	30.7	71	22.4	0	0	---	0.00	30.424 
18:30	30.7	30.7	30.7	71	22.4	0	0	---	0.00	30.423 
18:35	30.7	30.7	30.7	71	22.4	0	0	---	0.00	30.423 
18:40	30.7	30.7	30.7	71	22.4	0	0	---	0.00	30.423 
18:45	30.7	30.7	30.7	71	22.4	0	0	---	0.00	30.427 
18:50	30.7	30.7	30.7	72	22.8	0	0	---	0.00	30.427 
18:55	30.6	30.6	30.6	72	22.7	0	0	---	0.00	30.427 
19:00	30.6	30.6	30.6	72	22.7	0	0	---	0.00	30.426 
19:05	30.6	30.6	30.6	72	22.7	0	0	---	0.00	30.426 
19:10	30.6	30.6	30.6	72	22.7	0	0	---	0.00	30.426 
19:15	30.6	30.6	30.6	72	22.7	0	0	---	0.00	30.422 
19:20	30.6	30.6	30.6	72	22.7	0	0	---	0.00	30.422 
19:25	30.4	30.4	30.4	72	22.5	0	0	---	0.00	30.422 
19:30	30.4	30.4	30.4	73	22.8	0	0	---	0.00	30.421 
19:35	30.4	30.4	30.4	73	22.8	0	0	---	0.00	30.421 
19:40	30.3	30.3	30.3	73	22.7	0	0	---	0.00	30.421 
19:45	30.3	30.3	30.3	73	22.7	0	0	---	0.00	30.418 
19:50	30.1	30.1	30.1	73	22.5	0	0	---	0.00	30.418 
19:55	30.1	30.1	30.1	74	22.8	0	0	---	0.00	30.418 
20:00	30.1	30.1	30.1	74	22.8	0	0	---	0.00	30.420 
20:05	30.1	30.1	30.1	74	22.8	0	0	---	0.00	30.420 
20:10	30.0	30.0	30.0	74	22.7	0	0	---	0.00	30.420 
20:15	30.0	30.0	30.0	75	23.1	0	0	---	0.00	30.417 
20:20	30.0	30.0	30.0	75	23.1	0	0	---	0.00	30.417 
20:25	30.0	30.0	30.0	75	23.1	0	0	---	0.00	30.417 
20:30	30.0	30.0	30.0	75	23.1	0	0	---	0.00	30.416 
20:35	30.0	30.0	30.0	76	23.4	0	0	---	0.00	30.416 
20:40	30.0	30.0	30.0	75	23.1	0	0	---	0.00	30.416 
20:45	30.0	30.0	30.0	75	23.1	0	0	---	0.00	30.415 
20:50	30.0	30.0	30.0	75	23.1	0	0	---	0.00	30.415 
20:55	30.1	30.1	30.1	75	23.2	0	0	---	0.00	30.415 
21:00	30.1	30.1	30.1	74	22.8	0	0	---	0.00	30.416 
21:05	30.1	30.1	30.1	74	22.8	0	0	---	0.00	30.416 
21:10	30.1	30.1	30.1	74	22.8	0	0	---	0.00	30.416 
21:15	30.3	30.3	30.3	74	23.0	0	1	270	0.00	30.409 
21:20	30.3	30.3	30.3	73	22.7	0	1	270	0.00	30.409 
21:25	30.3	30.3	30.3	73	22.7	0	0	---	0.00	30.409 
21:30	30.3	30.3	30.3	73	22.7	0	0	---	0.00	30.408 
21:35	30.3	30.3	30.3	73	22.7	0	0	---	0.00	30.408 
21:40	30.3	30.3	30.3	73	22.7	0	1	270	0.00	30.408 
21:45	30.3	30.3	30.3	72	22.4	0	1	270	0.00	30.408 
21:50	30.3	30.3	30.3	72	22.4	0	2	270	0.00	30.408 
21:55	30.3	30.3	30.3	72	22.4	0	1	270	0.00	30.408 
22:00	30.3	30.3	30.3	72	22.4	0	2	270	0.00	30.405 
22:05	30.3	30.3	30.3	72	22.4	0	1	270	0.00	30.405 
22:10	30.3	30.3	30.3	71	22.0	0	0	---	0.00	30.405 
22:15	30.3	30.3	30.3	71	22.0	0	1	270	0.00	30.404 
22:20	30.1	30.1	30.1	71	21.9	0	2	270	0.00	30.404 
22:25	30.1	30.1	30.1	69	21.2	0	1	270	0.00	30.404 
22:30	30.1	30.1	30.1	69	21.2	0	1	338	0.00	30.400 
22:35	30.1	30.1	30.1	68	20.8	0	1	338	0.00	30.400 
22:40	30.1	30.1	30.1	68	20.8	0	1	338	0.00	30.400 
22:45	30.1	30.1	30.1	69	21.2	0	1	338	0.00	30.395 
22:50	30.1	30.1	30.1	69	21.2	0	0	---	0.00	30.395 
22:55	30.0	30.0	30.0	68	20.7	0	1	338	0.00	30.395 
23:00	30.0	30.0	30.0	68	20.7	0	1	338	0.00	30.402 
23:05	30.0	30.0	30.0	67	20.4	0	1	338	0.00	30.402 
23:10	30.0	30.0	30.0	67	20.4	0	0	---	0.00	30.402 
23:15	30.0	30.0	30.0	67	20.4	0	1	338	0.00	30.403 
23:20	30.0	30.0	30.0	67	20.4	0	0	---	0.00	30.403 
23:25	30.0	30.0	30.0	68	20.7	0	0	---	0.00	30.403 
23:30	30.0	30.0	30.0	68	20.7	0	0	---	0.00	30.406 
23:35	29.8	29.8	29.8	68	20.5	0	2	338	0.00	30.406 
23:40	29.8	29.8	29.8	68	20.5	0	0	---	0.00	30.406 
23:45	29.8	29.8	29.8	68	20.5	0	0	---	0.00	30.406 
23:50	29.8	29.8	29.8	68	20.5	0	0	---	0.00	30.406 
23:55	29.8	29.8	29.8	68	20.5	0	0	---	0.00	30.406 

CoCoRaHS
IN-AL-39
A2 Web Hosting
Creative Commons License
GoDaddy
search engine by freefind advanced

loaded 2018-11-18 12:02:32 • last modified 2010-11-18 10:43:29
Privacy PolicyDisclaimer
• wx.awcolley.com is powered by PmWiki v.2002016 •
• all content (unless otherwise noted) © 2018 A W Colley